Waldo, Arkansas
Current Conditions -  °F | °C
As of 9:53 AM on Thursday 29 Jan 2015 (Local Time) from KELD Reporting Station
Clear Clear  
Wind Chill: 62°   Ceiling: Unl
Heat Index: 62°   Visibility: 10mi
Dew Point: 52°   Wind: 10mph
Humidity: 70%   Direction: 230°SW
Pressure: 30.18"   Gusts: 20mph
Location:  33.35°N, 93.3°W
Report Text: KELD 291553Z AUTO 23009G17KT 10SM CLR 17/11 A3018 RMK AO2 SLP218 T01670111
Loading
Personal Weather Stations






























Interactive Weather Map New forecast layout! Learn more

10-Day Weather Forecast

Advertisements
Track Severe Weather on mobile